Time;durP1;ratioP1;P1;durP2;ratioP2;P2;SDS_P1;SDS_P2;PMS_P1;PMS_P2;Temp;Humidity;BMP_temperature;BMP_pressure;BME280_temperature;BME280_humidity;BME280_pressure;Samples;Min_cycle;Max_cycle;Signal;HPM_P1;HPM_P2
2021/12/27 00:01:41;;;;;;;226.83;63.80;;;;;;;-11.95;80.16;100851.84;4848300;59;1145433;-75
2021/12/27 00:06:47;;;;;;;188.93;64.03;;;;;;;-11.99;80.37;100841.14;4844398;59;1145407;-72
2021/12/27 00:11:53;;;;;;;203.07;64.40;;;;;;;-12.08;79.92;100843.11;4861357;59;1145317;-71
2021/12/27 00:16:59;;;;;;;218.40;64.53;;;;;;;-12.06;80.66;100849.48;4843180;59;1145303;-74
2021/12/27 00:22:05;;;;;;;219.87;67.30;;;;;;;-12.02;81.02;100850.86;4842382;60;1145483;-72
2021/12/27 00:27:11;;;;;;;206.40;72.10;;;;;;;-11.99;81.36;100844.95;4853417;60;1145730;-73
2021/12/27 00:32:17;;;;;;;220.03;71.90;;;;;;;-11.92;81.75;100845.53;4853037;60;1145341;-71
2021/12/27 00:37:23;;;;;;;220.07;68.07;;;;;;;-11.86;82.01;100841.80;4852754;60;1145458;-74
2021/12/27 00:42:29;;;;;;;207.07;70.10;;;;;;;-11.79;82.14;100838.53;4849951;60;1145325;-74
2021/12/27 00:47:35;;;;;;;213.77;66.47;;;;;;;-11.76;81.92;100841.12;4842255;61;1145608;-73
2021/12/27 00:52:41;;;;;;;201.93;64.40;;;;;;;-11.87;82.17;100834.56;4842884;61;1145210;-73
2021/12/27 00:57:53;;;;;;;214.17;67.40;;;;;;;-11.85;82.39;100828.22;4842422;60;1145320;-73
2021/12/27 01:02:59;;;;;;;207.47;67.27;;;;;;;-11.84;82.14;100831.21;4842978;60;1145333;-73
2021/12/27 01:08:06;;;;;;;228.27;72.47;;;;;;;-11.94;81.51;100825.52;4843175;61;1145199;-73
2021/12/27 01:13:26;;;;;;;269.63;83.70;;;;;;;-11.99;81.89;100810.54;4930031;59;1145334;-72
2021/12/27 01:18:28;;;;;;;271.45;74.77;;;;;;;-11.97;81.64;100807.19;4932461;58;1145418;-71
2021/12/27 01:23:34;;;;;;;195.73;60.77;;;;;;;-11.92;82.19;100800.91;4932849;59;1145328;-72
2021/12/27 01:28:41;;;;;;;186.97;60.27;;;;;;;-12.15;81.22;100786.05;4932940;59;1145756;-73
2021/12/27 01:33:47;;;;;;;194.53;61.90;;;;;;;-12.12;82.03;100790.34;4933163;58;1145785;-74
2021/12/27 01:38:53;;;;;;;217.20;73.13;;;;;;;-12.10;81.90;100795.92;4932701;59;1145896;-71
2021/12/27 01:43:59;;;;;;;237.00;71.53;;;;;;;-12.17;81.14;100798.31;4883722;59;1145293;-75
2021/12/27 01:49:07;;;;;;;269.63;72.43;;;;;;;-12.21;80.36;100809.27;4855580;60;1145549;-73
2021/12/27 01:54:13;;;;;;;228.23;66.90;;;;;;;-12.30;80.31;100807.42;4867913;59;1143204;-72
2021/12/27 01:59:20;;;;;;;205.40;70.17;;;;;;;-12.60;79.68;100794.09;4822317;60;1143280;-74
2021/12/27 02:04:26;;;;;;;259.47;76.00;;;;;;;-12.51;80.54;100814.23;4797790;61;1143153;-74
2021/12/27 02:09:43;;;;;;;264.03;81.30;;;;;;;-12.38;81.40;100816.63;4789768;60;1143400;-72
2021/12/27 02:14:39;;;;;;;355.13;103.20;;;;;;;-12.23;81.90;100806.73;4678044;63;1143342;-74
2021/12/27 02:19:52;;;;;;;256.57;73.57;;;;;;;-12.18;81.46;100806.37;4712388;62;1145398;-73
2021/12/27 02:24:57;;;;;;;205.43;61.50;;;;;;;-12.18;81.16;100792.77;4851679;61;1143294;-72
2021/12/27 02:30:06;;;;;;;192.00;59.03;;;;;;;-12.33;80.77;100791.22;4769548;62;1143406;-71
2021/12/27 02:35:19;;;;;;;202.37;58.80;;;;;;;-12.28;81.51;100801.09;4840154;61;1143362;-72
2021/12/27 02:40:28;;;;;;;211.33;62.20;;;;;;;-12.26;81.22;100795.61;4762480;61;1143503;-74
2021/12/27 02:45:52;;;;;;;201.40;62.07;;;;;;;-12.26;81.50;100783.73;4860715;60;1143315;-74
2021/12/27 02:51:00;;;;;;;212.00;61.53;;;;;;;-12.24;81.99;100775.70;4880450;60;1141280;-74
2021/12/27 02:56:08;;;;;;;233.17;67.03;;;;;;;-12.19;82.63;100766.84;4795962;62;1145326;-72
2021/12/27 03:01:23;;;;;;;218.27;60.40;;;;;;;-12.10;83.12;100759.37;4848861;60;1145274;-74
2021/12/27 03:06:29;;;;;;;182.80;53.63;;;;;;;-11.99;83.50;100753.17;4880145;60;1145269;-74
2021/12/27 03:11:35;;;;;;;192.23;56.47;;;;;;;-11.86;83.71;100744.48;4787190;61;1145292;-73
2021/12/27 03:16:40;;;;;;;198.85;61.48;;;;;;;-11.85;83.64;100737.69;4931712;60;1145364;-72
2021/12/27 03:21:46;;;;;;;205.47;64.83;;;;;;;-11.72;83.24;100754.86;4758643;61;1145273;-74
2021/12/27 03:26:51;;;;;;;201.63;66.47;;;;;;;-11.74;83.13;100752.70;4718889;61;1145817;-73
2021/12/27 03:31:58;;;;;;;209.90;64.30;;;;;;;-11.75;82.88;100759.48;4787490;60;1145348;-73
2021/12/27 03:37:04;;;;;;;161.87;45.77;;;;;;;-11.75;83.17;100753.53;4798164;61;1145724;-75
2021/12/27 03:42:10;;;;;;;175.27;54.10;;;;;;;-11.91;81.96;100746.50;4798472;61;1145307;-75
2021/12/27 03:47:17;;;;;;;188.67;53.43;;;;;;;-12.11;82.42;100753.83;4798692;61;1145341;-74
2021/12/27 03:52:22;;;;;;;155.73;48.87;;;;;;;-12.15;82.39;100745.67;4798712;61;1145521;-73
2021/12/27 03:57:28;;;;;;;163.07;49.23;;;;;;;-12.34;81.94;100734.70;4798680;61;1145459;-71
2021/12/27 04:02:37;;;;;;;165.53;53.40;;;;;;;-12.38;82.76;100736.78;4798769;61;1145479;-74
2021/12/27 04:07:56;;;;;;;167.93;50.80;;;;;;;-12.23;83.49;100728.14;4798724;61;1145253;-74
2021/12/27 04:12:50;;;;;;;186.97;53.70;;;;;;;-12.12;83.24;100724.93;4793659;60;1145384;-74
2021/12/27 04:17:56;;;;;;;196.70;58.40;;;;;;;-12.02;83.23;100718.70;4771978;60;1145249;-72
2021/12/27 04:23:02;;;;;;;186.30;55.37;;;;;;;-11.88;83.62;100731.25;4834288;59;1145511;-72
2021/12/27 04:28:08;;;;;;;170.50;51.00;;;;;;;-11.83;82.75;100729.23;4860613;59;1145255;-72
2021/12/27 04:33:14;;;;;;;167.50;52.23;;;;;;;-12.11;80.98;100731.75;4834062;60;1145257;-74
2021/12/27 04:38:20;;;;;;;207.40;56.80;;;;;;;-12.29;81.43;100728.02;4864316;58;1145411;-72
2021/12/27 04:43:26;;;;;;;168.80;50.00;;;;;;;-12.22;82.37;100721.76;4929539;59;1145274;-72
2021/12/27 04:48:33;;;;;;;154.27;49.55;;;;;;;-12.18;82.08;100710.80;4890497;60;1145244;-73
2021/12/27 04:53:39;;;;;;;129.40;38.13;;;;;;;-12.29;81.62;100712.31;4846668;59;1145255;-72
2021/12/27 04:58:46;;;;;;;137.97;39.43;;;;;;;-12.39;81.47;100701.94;4929464;60;1145309;-72
2021/12/27 05:03:52;;;;;;;126.10;42.37;;;;;;;-12.41;83.00;100693.41;4929120;59;1145297;-75
2021/12/27 05:08:58;;;;;;;141.03;44.90;;;;;;;-12.32;83.64;100683.36;4928145;59;1145561;-73
2021/12/27 05:14:04;;;;;;;279.07;80.97;;;;;;;-12.23;83.89;100686.94;4920818;59;1145604;-72
2021/12/27 05:19:10;;;;;;;208.50;60.87;;;;;;;-12.13;84.04;100693.04;4920372;59;1144764;-72
2021/12/27 05:24:16;;;;;;;136.03;44.07;;;;;;;-12.03;84.20;100694.89;4905614;58;1145588;-75
2021/12/27 05:29:23;;;;;;;132.10;41.80;;;;;;;-11.97;84.17;100689.05;4966945;59;1145346;-73
2021/12/27 05:34:29;;;;;;;140.80;44.17;;;;;;;-12.02;84.02;100684.28;4969322;59;1145322;-72
2021/12/27 05:39:36;;;;;;;131.97;42.63;;;;;;;-12.04;84.15;100688.49;4960879;58;1145477;-71
2021/12/27 05:44:42;;;;;;;155.97;43.93;;;;;;;-12.05;84.19;100681.67;4940401;58;1145402;-74
2021/12/27 05:49:48;;;;;;;127.80;39.93;;;;;;;-12.08;84.16;100672.31;4898567;58;1145218;-72
2021/12/27 05:54:54;;;;;;;140.80;42.63;;;;;;;-12.13;84.29;100682.84;4905957;58;1145226;-75
2021/12/27 06:00:00;;;;;;;132.82;41.63;;;;;;;-12.14;84.29;100688.77;4884797;59;1145563;-73
2021/12/27 06:05:07;;;;;;;132.45;43.80;;;;;;;-12.18;84.25;100686.58;4890576;58;1143249;-73
2021/12/27 06:10:13;;;;;;;126.13;39.60;;;;;;;-12.20;84.36;100681.88;4924590;59;1143146;-73
2021/12/27 06:15:19;;;;;;;146.90;47.47;;;;;;;-12.21;84.49;100689.07;4966537;58;1143533;-74
2021/12/27 06:20:25;;;;;;;131.77;40.50;;;;;;;-12.22;84.41;100675.88;4962821;58;1145440;-73
2021/12/27 06:25:31;;;;;;;268.13;77.07;;;;;;;-12.17;84.67;100673.00;4891950;59;1143182;-74
2021/12/27 06:30:37;;;;;;;519.67;166.45;;;;;;;-12.07;84.76;100666.39;4906938;59;1143358;-72
2021/12/27 06:35:43;;;;;;;284.80;79.23;;;;;;;-12.04;84.70;100665.55;4913583;59;1145293;-73
2021/12/27 06:40:52;;;;;;;355.20;88.67;;;;;;;-12.03;84.77;100675.77;4882130;59;1143315;-72
2021/12/27 06:46:00;;;;;;;339.75;92.65;;;;;;;-12.00;84.69;100692.81;4838472;59;1143290;-72
2021/12/27 06:51:06;;;;;;;245.87;74.20;;;;;;;-11.94;84.89;100690.38;4816761;60;1143584;-74
2021/12/27 06:56:12;;;;;;;172.97;55.00;;;;;;;-11.89;84.97;100682.36;4856634;59;1143298;-74
2021/12/27 07:01:18;;;;;;;277.53;74.37;;;;;;;-11.86;84.80;100684.55;4910952;59;1143176;-72
2021/12/27 07:06:24;;;;;;;256.87;72.53;;;;;;;-11.86;84.83;100671.80;4807849;60;1143597;-72
2021/12/27 07:11:29;;;;;;;377.83;106.93;;;;;;;-11.85;85.09;100669.69;4843262;59;1143458;-74
2021/12/27 07:16:35;;;;;;;341.60;117.53;;;;;;;-11.84;85.23;100662.48;4814361;59;1145803;-75
2021/12/27 07:21:41;;;;;;;503.83;156.60;;;;;;;-11.83;85.55;100665.47;4784713;60;1145247;-72
2021/12/27 07:26:47;;;;;;;278.07;84.30;;;;;;;-11.77;85.91;100665.58;4869660;59;1145324;-75
2021/12/27 07:31:53;;;;;;;233.60;73.93;;;;;;;-11.74;85.99;100673.63;4880740;59;1141209;-72
2021/12/27 07:36:59;;;;;;;173.47;53.40;;;;;;;-11.70;86.20;100671.98;4821641;59;1141095;-75
2021/12/27 07:42:08;;;;;;;193.23;64.53;;;;;;;-11.65;86.48;100670.38;4864556;60;1145540;-77
2021/12/27 07:47:14;;;;;;;376.00;118.03;;;;;;;-11.59;86.67;100682.78;4878565;60;1145258;-72
2021/12/27 07:52:20;;;;;;;162.53;62.45;;;;;;;-11.50;87.10;100686.75;4865932;59;1147422;-74
2021/12/27 07:57:26;;;;;;;246.17;71.20;;;;;;;-11.37;87.61;100689.05;4831786;59;1145602;-76
2021/12/27 08:02:32;;;;;;;248.33;70.63;;;;;;;-11.15;88.53;100685.92;4833758;59;1145357;-72
2021/12/27 08:07:38;;;;;;;450.53;178.43;;;;;;;-10.80;89.08;100690.18;4860336;59;1145362;-73
2021/12/27 08:12:46;;;;;;;230.57;72.53;;;;;;;-10.43;89.42;100677.80;4883639;59;1147389;-76
2021/12/27 08:17:52;;;;;;;205.17;68.13;;;;;;;-10.11;88.99;100680.62;4881246;60;1145330;-77
2021/12/27 08:22:58;;;;;;;248.80;76.13;;;;;;;-9.88;88.89;100666.71;4879862;59;1145253;-72
2021/12/27 08:28:05;;;;;;;262.73;78.67;;;;;;;-9.63;89.08;100671.17;4897453;59;1143259;-73
2021/12/27 08:33:12;;;;;;;185.63;52.67;;;;;;;-9.38;88.53;100662.78;4889114;59;1143282;-75
2021/12/27 08:38:18;;;;;;;159.07;49.60;;;;;;;-9.18;88.40;100662.89;4889169;59;1143325;-73
2021/12/27 08:43:36;;;;;;;176.13;62.03;;;;;;;-9.16;87.91;100652.62;4914936;59;1143312;-71
2021/12/27 08:48:43;;;;;;;116.77;39.67;;;;;;;-8.99;87.95;100656.11;4846223;59;1143364;-69
2021/12/27 08:53:48;;;;;;;107.77;35.50;;;;;;;-8.81;87.98;100670.27;4880410;60;1143247;-70
2021/12/27 08:58:54;;;;;;;119.55;38.48;;;;;;;-8.68;87.58;100657.05;4908921;59;1143131;-73
2021/12/27 09:04:00;;;;;;;110.03;38.10;;;;;;;-8.53;88.30;100657.09;4906824;59;1143294;-75
2021/12/27 09:09:07;;;;;;;87.83;32.43;;;;;;;-8.41;88.40;100656.28;4920072;59;22384;-73
2021/12/27 09:14:15;;;;;;;120.93;42.10;;;;;;;-8.33;88.15;100637.46;4847820;59;1136874;-74
2021/12/27 09:19:21;;;;;;;81.17;27.27;;;;;;;-8.28;88.00;100628.04;4879125;59;1142671;-72
2021/12/27 09:24:28;;;;;;;88.73;30.70;;;;;;;-8.28;87.83;100627.19;4883047;59;1141362;-76
2021/12/27 09:29:34;;;;;;;89.23;28.50;;;;;;;-8.32;88.11;100625.07;4893725;59;1140439;-73
2021/12/27 09:34:42;;;;;;;92.43;30.17;;;;;;;-8.28;88.37;100625.90;4885954;60;1141097;-76
2021/12/27 09:39:53;;;;;;;69.93;25.67;;;;;;;-8.24;88.97;100619.89;4865697;60;1141251;-69
2021/12/27 09:44:57;;;;;;;66.73;23.23;;;;;;;-8.18;89.27;100618.20;4833488;60;1141197;-73
2021/12/27 09:50:06;;;;;;;94.03;31.93;;;;;;;-8.10;89.69;100616.07;4841176;59;1141143;-70
2021/12/27 09:55:13;;;;;;;75.20;27.47;;;;;;;-8.01;89.98;100608.36;4901366;59;1141170;-75
2021/12/27 10:00:19;;;;;;;77.87;26.47;;;;;;;-7.89;90.01;100599.34;4920798;59;1141075;-72
2021/12/27 10:05:28;;;;;;;89.57;32.87;;;;;;;-7.80;89.96;100604.48;4865065;59;1141181;-72
2021/12/27 10:10:37;;;;;;;83.33;28.43;;;;;;;-7.69;90.02;100598.89;4885016;59;1141325;-76
2021/12/27 10:15:47;;;;;;;90.87;28.90;;;;;;;-7.58;90.17;100589.44;4913539;59;1141075;-74
2021/12/27 10:20:53;;;;;;;89.58;29.90;;;;;;;-7.47;90.09;100585.54;4920275;59;1141184;-73
2021/12/27 10:25:59;;;;;;;77.77;26.50;;;;;;;-7.39;89.88;100576.54;4882173;59;1139269;-77
2021/12/27 10:31:08;;;;;;;111.33;36.23;;;;;;;-7.32;89.58;100564.08;4911340;59;1138592;-78
2021/12/27 10:36:13;;;;;;;84.55;31.52;;;;;;;-7.29;89.50;100553.79;4778799;59;1141146;-72
2021/12/27 10:41:20;;;;;;;101.50;34.00;;;;;;;-7.24;89.31;100544.36;4777707;59;1139294;-74
2021/12/27 10:46:26;;;;;;;89.80;35.83;;;;;;;-7.15;88.98;100544.30;4846029;59;1141072;-72
2021/12/27 10:51:31;;;;;;;91.33;29.90;;;;;;;-7.02;89.14;100531.80;4833319;59;1139018;-75
2021/12/27 10:57:02;;;;;;;125.50;40.13;;;;;;;-6.92;89.08;100531.33;4946891;59;1139089;-76
2021/12/27 11:02:15;;;;;;;185.47;54.50;;;;;;;-6.77;89.51;100537.64;4934866;59;1141374;-73
2021/12/27 11:07:21;;;;;;;106.67;37.33;;;;;;;-6.64;89.56;100519.12;4905520;59;1141277;-73
2021/12/27 11:12:26;;;;;;;234.80;72.83;;;;;;;-6.49;89.56;100522.42;4878537;59;1141121;-76
2021/12/27 11:17:33;;;;;;;125.40;44.50;;;;;;;-6.37;88.54;100507.30;4880863;60;1141550;-72
2021/12/27 11:22:42;;;;;;;92.80;31.37;;;;;;;-6.26;88.61;100499.50;4832277;59;1139140;-70
2021/12/27 11:27:49;;;;;;;119.40;41.33;;;;;;;-6.16;88.04;100500.67;4828961;59;21483;-74
2021/12/27 11:33:13;;;;;;;155.37;66.87;;;;;;;-6.02;88.55;100491.52;4880825;59;1139039;-74
2021/12/27 11:38:43;;;;;;;105.67;36.03;;;;;;;-5.84;88.47;100477.13;4831784;60;1143279;-76
2021/12/27 11:43:59;;;;;;;314.20;116.17;;;;;;;-5.70;86.41;100468.80;4839916;59;1143185;-75
2021/12/27 11:49:04;;;;;;;165.30;54.40;;;;;;;-5.27;85.53;100473.38;4879035;59;1145593;-75
2021/12/27 11:54:31;;;;;;;163.03;53.23;;;;;;;-4.78;86.48;100465.77;4829719;59;1143122;-78
2021/12/27 11:59:42;;;;;;;107.23;41.13;;;;;;;-4.26;84.56;100464.42;4874228;59;1143272;-80
2021/12/27 12:04:57;;;;;;;127.60;43.83;;;;;;;-3.88;82.62;100450.37;4915003;59;1143208;-80
2021/12/27 12:10:15;;;;;;;138.15;49.33;;;;;;;-3.60;81.34;100438.16;4827104;60;1143221;-76
2021/12/27 12:15:27;;;;;;;99.07;36.40;;;;;;;-3.46;80.85;100452.52;4855014;60;1143213;-78
2021/12/27 12:20:38;;;;;;;223.40;94.20;;;;;;;-3.25;78.66;100433.95;4840601;59;1141541;-74
2021/12/27 12:25:44;;;;;;;85.70;30.37;;;;;;;-3.10;79.47;100436.19;4809214;59;1143171;-72
2021/12/27 12:30:52;;;;;;;107.83;37.43;;;;;;;-2.87;79.25;100438.21;4871507;59;1141164;-72
2021/12/27 12:36:04;;;;;;;98.60;36.90;;;;;;;-2.38;78.50;100420.16;4861582;59;1143247;-71
2021/12/27 12:41:18;;;;;;;81.60;34.03;;;;;;;-2.38;78.50;100420.16;4796304;61;1141243;-78
2021/12/27 12:46:38;;;;;;;113.90;40.57;;;;;;;-2.17;75.37;100423.48;4805201;60;1141153;-80
2021/12/27 12:52:00;;;;;;;104.23;37.73;;;;;;;-1.99;75.73;100415.66;4850221;60;1141257;-72
2021/12/27 12:57:16;;;;;;;90.83;33.87;;;;;;;-1.78;74.48;100405.51;4825406;60;1141475;-73
2021/12/27 13:02:35;;;;;;;71.70;29.67;;;;;;;-1.63;73.70;100401.62;4850809;60;1139128;-77
2021/12/27 13:07:58;;;;;;;82.97;30.30;;;;;;;-1.42;73.49;100393.20;4820850;60;1138990;-72
2021/12/27 13:13:16;;;;;;;96.00;36.00;;;;;;;-1.36;74.37;100393.89;4784742;59;1136992;-73
2021/12/27 13:18:25;;;;;;;91.07;33.53;;;;;;;-1.45;72.54;100385.95;4776511;61;1141315;-71
2021/12/27 13:23:41;;;;;;;88.77;35.57;;;;;;;-1.52;71.29;100386.58;4906262;59;1141106;-75
2021/12/27 13:28:51;;;;;;;67.65;27.55;;;;;;;-1.30;73.09;100390.67;4861403;59;1141156;-73
2021/12/27 13:34:04;;;;;;;88.27;34.17;;;;;;;-1.32;71.62;100382.08;4826566;60;1141366;-74
2021/12/27 13:39:16;;;;;;;134.80;56.83;;;;;;;-1.98;71.37;100392.27;4870691;60;1141193;-73
2021/12/27 13:44:32;;;;;;;196.17;82.47;;;;;;;-2.86;72.60;100402.39;4836539;60;1143267;-73
2021/12/27 13:49:41;;;;;;;212.20;87.43;;;;;;;-3.67;74.30;100400.86;4815112;60;1143466;-72
2021/12/27 13:54:52;;;;;;;127.20;39.73;;;;;;;-4.24;76.35;100406.30;4801289;60;1143306;-77
2021/12/27 13:59:58;;;;;;;107.10;37.13;;;;;;;-4.62;77.95;100404.44;4841893;60;1143427;-74
2021/12/27 14:05:04;;;;;;;91.17;31.03;;;;;;;-4.85;78.84;100413.84;4802999;60;1143293;-74
2021/12/27 14:10:13;;;;;;;95.73;31.43;;;;;;;-4.96;79.79;100408.02;4830397;60;1141147;-72
2021/12/27 14:15:18;;;;;;;106.40;33.77;;;;;;;-5.03;80.29;100400.81;4869819;60;1141293;-73
2021/12/27 14:20:24;;;;;;;108.17;35.63;;;;;;;-5.15;80.67;100401.45;4835342;60;1143342;-73
2021/12/27 14:25:30;;;;;;;114.33;41.53;;;;;;;-5.25;81.15;100394.73;4915539;59;1143549;-77
2021/12/27 14:30:46;;;;;;;113.30;38.53;;;;;;;-5.41;81.56;100407.86;4879342;59;1143523;-73
2021/12/27 14:35:52;;;;;;;136.40;46.33;;;;;;;-5.52;81.96;100408.89;4930059;58;1142722;-76
2021/12/27 14:41:03;;;;;;;122.67;42.10;;;;;;;-5.63;82.09;100414.60;4969202;59;1143361;-69
2021/12/27 14:46:09;;;;;;;145.37;45.37;;;;;;;-5.74;82.40;100413.47;4969226;59;1143240;-73
2021/12/27 14:51:15;;;;;;;118.47;38.67;;;;;;;-5.81;82.74;100411.86;4969178;59;1143226;-75
2021/12/27 14:56:20;;;;;;;122.57;39.00;;;;;;;-5.91;82.85;100411.14;4949192;59;1143406;-76
2021/12/27 15:01:27;;;;;;;114.65;38.30;;;;;;;-6.05;83.01;100417.74;4917550;59;1143276;-75
2021/12/27 15:06:33;;;;;;;108.00;37.23;;;;;;;-6.17;83.33;100420.91;4936685;59;1143163;-71
2021/12/27 15:11:39;;;;;;;116.87;41.53;;;;;;;-6.25;83.69;100417.55;4948003;59;1142996;-71
2021/12/27 15:16:46;;;;;;;136.03;50.63;;;;;;;-6.31;83.86;100416.34;4924954;59;1143200;-75
2021/12/27 15:21:52;;;;;;;215.03;58.17;;;;;;;-6.42;83.98;100412.61;4929538;59;1143463;-72
2021/12/27 15:26:58;;;;;;;176.03;54.77;;;;;;;-6.50;84.15;100406.23;4928373;59;1141282;-73
2021/12/27 15:32:04;;;;;;;149.27;45.20;;;;;;;-6.61;84.33;100414.94;4908015;59;1141361;-72
2021/12/27 15:37:11;;;;;;;188.30;56.30;;;;;;;-6.70;84.48;100418.42;4905377;59;1141217;-71
2021/12/27 15:42:17;;;;;;;125.10;43.17;;;;;;;-6.72;84.59;100423.19;4865438;60;1141177;-74
2021/12/27 15:47:22;;;;;;;182.55;55.65;;;;;;;-6.77;84.64;100425.80;4874569;60;1141115;-75
2021/12/27 15:52:28;;;;;;;157.07;55.43;;;;;;;-6.84;84.71;100422.41;4941412;59;1141126;-73
2021/12/27 15:57:35;;;;;;;146.60;50.43;;;;;;;-6.91;84.62;100416.06;4950832;58;1141189;-75
2021/12/27 16:02:41;;;;;;;149.50;52.87;;;;;;;-6.97;84.79;100412.25;4941504;58;1141159;-73
2021/12/27 16:07:51;;;;;;;167.93;52.27;;;;;;;-7.05;84.94;100418.75;4941176;59;1141222;-72
2021/12/27 16:12:55;;;;;;;217.20;79.23;;;;;;;-7.13;84.94;100407.23;4947005;58;1141115;-78
2021/12/27 16:18:02;;;;;;;195.60;82.93;;;;;;;-7.24;85.03;100400.05;4952460;58;1141166;-74
2021/12/27 16:23:09;;;;;;;119.43;44.80;;;;;;;-7.34;85.20;100401.41;4952214;59;1141179;-71
2021/12/27 16:28:16;;;;;;;166.83;56.10;;;;;;;-7.45;85.55;100397.18;4952150;58;1141329;-74
2021/12/27 16:33:22;;;;;;;160.17;58.03;;;;;;;-7.55;85.71;100396.83;4910701;59;1141166;-70
2021/12/27 16:38:28;;;;;;;156.70;50.27;;;;;;;-7.62;85.97;100390.44;4907148;59;1141190;-74
2021/12/27 16:43:34;;;;;;;149.03;47.17;;;;;;;-7.65;85.98;100393.05;4921245;59;1141227;-75
2021/12/27 16:48:40;;;;;;;200.67;60.27;;;;;;;-7.68;85.94;100390.06;4921343;59;1141146;-75
2021/12/27 16:53:45;;;;;;;177.97;54.13;;;;;;;-7.73;86.06;100380.67;4907768;59;1139081;-72
2021/12/27 16:58:51;;;;;;;131.27;46.93;;;;;;;-7.72;86.23;100390.08;4874919;59;1139008;-73
2021/12/27 17:03:58;;;;;;;134.90;45.05;;;;;;;-7.77;86.24;100391.38;4885980;59;1143209;-73
2021/12/27 17:09:05;;;;;;;159.83;53.83;;;;;;;-7.79;86.59;100391.84;4805532;60;1143278;-75
2021/12/27 17:14:11;;;;;;;151.13;44.20;;;;;;;-7.90;86.76;100385.47;4774891;62;1143021;-75
2021/12/27 17:19:18;;;;;;;148.43;51.03;;;;;;;-7.89;86.65;100396.59;4691616;62;1143422;-70
2021/12/27 17:24:24;;;;;;;127.20;45.00;;;;;;;-7.93;87.31;100380.77;4695180;61;1143372;-72
2021/12/27 17:29:30;;;;;;;196.03;62.90;;;;;;;-7.95;87.43;100376.11;4700821;61;1143296;-77
2021/12/27 17:34:37;;;;;;;150.97;49.50;;;;;;;-7.99;87.69;100369.27;4796686;61;1143403;-70
2021/12/27 17:39:43;;;;;;;136.50;49.13;;;;;;;-8.03;88.40;100360.73;4739492;60;1143274;-74
2021/12/27 17:44:48;;;;;;;148.77;54.67;;;;;;;-8.03;88.33;100361.16;4739398;61;1143261;-75
2021/12/27 17:49:56;;;;;;;190.40;71.63;;;;;;;-8.08;89.02;100354.75;4825944;57;1143185;-72
2021/12/27 17:55:01;;;;;;;169.77;62.13;;;;;;;-8.10;88.75;100374.89;5045986;58;1143114;-78
2021/12/27 18:00:09;;;;;;;162.57;56.30;;;;;;;-8.12;89.17;100377.46;5052751;58;1143322;-75
2021/12/27 18:05:15;;;;;;;132.40;45.77;;;;;;;-8.11;89.25;100371.91;5054429;58;1143261;-73
2021/12/27 18:10:23;;;;;;;148.57;50.27;;;;;;;-8.12;89.57;100374.05;5073242;57;1143466;-76
2021/12/27 18:15:28;;;;;;;538.13;159.93;;;;;;;-8.13;89.86;100373.19;5066456;58;1143448;-76
2021/12/27 18:20:34;;;;;;;288.57;82.33;;;;;;;-8.14;89.91;100367.63;5047464;58;1145454;-75
2021/12/27 18:25:40;;;;;;;478.88;168.17;;;;;;;-8.14;89.93;100366.78;5046870;57;1143492;-72
2021/12/27 18:30:46;;;;;;;166.13;55.30;;;;;;;-8.14;89.87;100356.09;5105504;58;1145239;-74
2021/12/27 18:35:52;;;;;;;181.27;60.60;;;;;;;-8.12;90.33;100368.91;5073865;57;1143197;-70
2021/12/27 18:41:08;;;;;;;149.20;50.63;;;;;;;-8.09;90.67;100379.98;5080417;57;1143222;-75
2021/12/27 18:46:18;;;;;;;142.13;46.67;;;;;;;-8.02;91.05;100370.14;5081511;57;1143085;-72
2021/12/27 18:51:23;;;;;;;127.83;41.93;;;;;;;-7.96;91.44;100364.98;5069914;58;1143637;-73
2021/12/27 18:56:29;;;;;;;147.63;49.87;;;;;;;-7.88;91.90;100385.46;5055578;58;1143164;-75
2021/12/27 19:01:36;;;;;;;149.80;50.50;;;;;;;-7.78;91.86;100380.69;5029155;58;1143183;-71
2021/12/27 19:06:42;;;;;;;124.20;45.17;;;;;;;-7.66;92.09;100369.52;5072509;58;1143524;-76
2021/12/27 19:11:48;;;;;;;139.93;44.60;;;;;;;-7.59;92.62;100361.75;5066285;58;1143471;-73
2021/12/27 19:16:54;;;;;;;134.43;44.37;;;;;;;-7.52;92.59;100357.02;5012381;58;1142633;-74
2021/12/27 19:22:00;;;;;;;127.13;43.40;;;;;;;-7.43;93.61;100338.09;5054121;58;1143454;-72
2021/12/27 19:27:06;;;;;;;74.30;28.53;;;;;;;-7.34;93.74;100332.91;5055325;58;1143317;-72
2021/12/27 19:32:13;;;;;;;106.67;34.03;;;;;;;-7.21;98.16;100323.38;5098934;57;1141602;-72
2021/12/27 19:37:21;;;;;;;100.90;35.53;;;;;;;-7.05;98.13;100332.66;5105971;57;1143277;-75
2021/12/27 19:42:27;;;;;;;78.37;29.03;;;;;;;-6.92;99.57;100335.52;5102637;57;1142542;-71
2021/12/27 19:47:35;;;;;;;100.47;35.10;;;;;;;-6.81;100.00;100324.69;5111713;57;1141267;-73
2021/12/27 19:52:44;;;;;;;79.77;27.10;;;;;;;-6.70;100.00;100318.14;5175235;56;1145259;-76
2021/12/27 19:57:53;;;;;;;65.52;24.92;;;;;;;-6.64;100.00;100312.94;5172475;56;1143220;-70
2021/12/27 20:03:01;;;;;;;57.37;19.17;;;;;;;-6.57;100.00;100330.45;5163293;56;1140734;-71
2021/12/27 20:08:07;;;;;;;59.53;19.83;;;;;;;-6.53;100.00;100326.95;5193505;56;1141000;-69
2021/12/27 20:13:13;;;;;;;68.67;23.23;;;;;;;-6.47;100.00;100329.03;5162574;56;1141211;-70
2021/12/27 20:18:21;;;;;;;55.10;21.37;;;;;;;-6.44;100.00;100312.28;5141213;57;1141098;-72
2021/12/27 20:23:27;;;;;;;71.40;26.17;;;;;;;-6.37;100.00;100319.48;5141450;57;1141206;-71
2021/12/27 20:28:34;;;;;;;63.53;22.30;;;;;;;-6.31;100.00;100328.85;5142719;57;1141173;-74
2021/12/27 20:33:40;;;;;;;83.07;29.53;;;;;;;-6.29;100.00;100306.09;5142832;57;1141172;-72
2021/12/27 20:38:46;;;;;;;83.17;29.23;;;;;;;-6.26;100.00;100311.18;5142022;57;1141356;-72
2021/12/27 20:43:53;;;;;;;99.53;35.10;;;;;;;-6.20;100.00;100306.41;5177699;56;1141151;-73
2021/12/27 20:49:01;;;;;;;44.73;17.97;;;;;;;-6.16;100.00;100317.08;5137564;56;1141129;-72
2021/12/27 20:54:08;;;;;;;65.08;24.52;;;;;;;-6.13;100.00;100308.04;5133607;57;1141155;-74
2021/12/27 20:59:15;;;;;;;81.60;30.40;;;;;;;-6.14;100.00;100297.33;5143425;57;1141040;-73
2021/12/27 21:04:26;;;;;;;92.80;31.27;;;;;;;-6.11;100.00;100317.41;5120476;57;1141097;-73
2021/12/27 21:09:31;;;;;;;65.10;25.80;;;;;;;-6.06;100.00;100314.79;5139624;57;1141057;-72
2021/12/27 21:14:36;;;;;;;74.27;31.70;;;;;;;-6.04;100.00;100315.63;5098446;58;1141406;-72
2021/12/27 21:19:42;;;;;;;70.40;25.40;;;;;;;-6.02;100.00;100313.03;5108507;57;1139039;-70
2021/12/27 21:24:55;;;;;;;80.10;31.33;;;;;;;-6.01;100.00;100301.43;5105803;58;1143649;-70
2021/12/27 21:30:01;;;;;;;85.97;32.80;;;;;;;-6.01;100.00;100300.14;5102879;57;1143126;-71
2021/12/27 21:35:11;;;;;;;86.07;32.10;;;;;;;-6.01;100.00;100295.00;5103607;57;1143123;-69
2021/12/27 21:40:20;;;;;;;63.20;22.17;;;;;;;-6.00;100.00;100303.57;5103925;57;1143507;-70
2021/12/27 21:45:28;;;;;;;77.90;30.93;;;;;;;-6.00;100.00;100302.28;5103906;57;1143203;-71
2021/12/27 21:50:38;;;;;;;87.57;32.17;;;;;;;-6.03;100.00;100307.03;5104139;57;1143306;-72
2021/12/27 21:55:45;;;;;;;78.87;29.65;;;;;;;-5.99;100.00;100303.98;5115384;57;1143432;-72
2021/12/27 22:00:51;;;;;;;76.33;30.07;;;;;;;-5.94;100.00;100313.77;5127254;57;1143605;-72
2021/12/27 22:05:56;;;;;;;89.40;30.10;;;;;;;-5.93;100.00;100307.74;5127336;57;1143112;-72
2021/12/27 22:11:03;;;;;;;90.23;32.77;;;;;;;-5.90;100.00;100318.01;5112812;57;1143226;-72
2021/12/27 22:16:09;;;;;;;86.02;32.80;;;;;;;-5.88;100.00;100313.69;5100856;58;1143237;-75
2021/12/27 22:21:16;;;;;;;100.70;33.40;;;;;;;-5.87;100.00;100316.65;5100645;58;1143258;-74
2021/12/27 22:26:22;;;;;;;90.00;31.73;;;;;;;-5.82;100.00;100308.44;5100690;58;1145284;-75